Time;durP1;ratioP1;P1;durP2;ratioP2;P2;SDS_P1;SDS_P2;PMS_P1;PMS_P2;Temp;Humidity;BMP_temperature;BMP_pressure;BME280_temperature;BME280_humidity;BME280_pressure;Samples;Min_cycle;Max_cycle;Signal;HPM_P1;HPM_P2
2023/12/22 00:01:23;;;;;;;3.33;1.30;;;;;;;5.75;100.00;96044.63;5004868;28;20664;-59
2023/12/22 00:03:50;;;;;;;9.82;1.95;;;;;;;5.78;100.00;96044.13;5005374;28;20073;-60
2023/12/22 00:06:16;;;;;;;4.35;1.40;;;;;;;5.81;100.00;96027.50;5004016;28;20560;-59
2023/12/22 00:08:43;;;;;;;7.68;1.80;;;;;;;5.86;100.00;96018.66;5004386;28;20043;-60
2023/12/22 00:11:10;;;;;;;10.07;1.85;;;;;;;5.97;100.00;96016.91;5001415;28;20042;-59
2023/12/22 00:13:36;;;;;;;5.15;1.50;;;;;;;5.98;100.00;96003.19;5002424;28;20121;-58
2023/12/22 00:16:03;;;;;;;9.00;1.83;;;;;;;5.90;100.00;95990.22;5005332;28;20046;-59
2023/12/22 00:18:30;;;;;;;6.82;1.67;;;;;;;5.92;100.00;95995.34;5003498;28;20437;-58
2023/12/22 00:20:57;;;;;;;7.90;1.45;;;;;;;5.88;100.00;95992.38;5002221;28;20080;-59
2023/12/22 00:23:24;;;;;;;4.40;1.25;;;;;;;5.82;100.00;95972.72;4999519;28;20050;-60
2023/12/22 00:25:50;;;;;;;7.28;1.52;;;;;;;5.92;100.00;95989.97;5004936;28;20041;-59
2023/12/22 00:28:17;;;;;;;5.65;1.30;;;;;;;5.89;100.00;95993.19;5004489;28;20136;-57
2023/12/22 00:30:43;;;;;;;5.93;1.35;;;;;;;5.79;100.00;96026.13;4996053;28;20033;-59
2023/12/22 00:33:10;;;;;;;4.35;1.10;;;;;;;5.73;100.00;96052.94;5005061;28;20042;-59
2023/12/22 00:35:37;;;;;;;4.82;1.60;;;;;;;5.63;100.00;96068.94;4984967;28;20077;-59
2023/12/22 00:38:04;;;;;;;4.45;1.20;;;;;;;5.52;100.00;96077.94;4984625;28;20128;-59
2023/12/22 00:40:31;;;;;;;7.50;1.50;;;;;;;5.43;100.00;96099.88;5003706;28;20046;-59
2023/12/22 00:42:57;;;;;;;5.47;1.50;;;;;;;5.40;100.00;96084.28;5003437;28;20058;-60
2023/12/22 00:45:24;;;;;;;3.15;1.27;;;;;;;5.37;100.00;96102.72;4998696;28;20042;-59
2023/12/22 00:47:50;;;;;;;4.85;1.40;;;;;;;5.33;100.00;96118.53;5004678;28;20081;-59
2023/12/22 00:50:18;;;;;;;7.20;1.85;;;;;;;5.31;100.00;96108.03;5003045;28;20085;-58
2023/12/22 00:52:44;;;;;;;5.43;1.77;;;;;;;5.33;100.00;96095.19;4999956;28;20540;-58
2023/12/22 00:55:11;;;;;;;2.85;1.20;;;;;;;5.32;100.00;96080.16;5014616;28;20100;-60
2023/12/22 00:57:38;;;;;;;6.50;1.38;;;;;;;5.33;100.00;96091.69;5001587;28;20057;-58
2023/12/22 01:00:08;;;;;;;5.00;1.13;;;;;;;5.26;100.00;96064.22;4999555;28;20038;-59
2023/12/22 01:02:35;;;;;;;5.22;1.10;;;;;;;5.36;100.00;96060.84;4995889;28;20061;-59
2023/12/22 01:05:02;;;;;;;5.70;1.08;;;;;;;5.45;100.00;96038.69;4995135;28;20046;-59
2023/12/22 01:07:29;;;;;;;6.68;1.42;;;;;;;5.41;100.00;96034.06;5001394;28;20541;-57
2023/12/22 01:09:55;;;;;;;5.43;1.33;;;;;;;5.45;100.00;96041.38;5003861;28;20217;-62
2023/12/22 01:12:22;;;;;;;5.68;0.90;;;;;;;5.46;100.00;96048.34;5003874;28;20148;-62
2023/12/22 01:14:51;;;;;;;7.93;1.10;;;;;;;5.48;100.00;96042.75;5001706;28;20045;-63
2023/12/22 01:17:18;;;;;;;5.32;0.95;;;;;;;5.47;100.00;96043.81;5004368;28;20050;-65
2023/12/22 01:19:45;;;;;;;6.90;1.08;;;;;;;5.41;100.00;96042.94;5002328;28;20049;-62
2023/12/22 01:22:12;;;;;;;6.13;1.20;;;;;;;5.44;100.00;96045.13;5004024;28;20042;-63
2023/12/22 01:24:42;;;;;;;3.38;0.80;;;;;;;5.45;100.00;96053.97;5001185;28;20125;-63
2023/12/22 01:27:09;;;;;;;4.28;0.90;;;;;;;5.46;100.00;96059.09;5004210;28;20133;-64
2023/12/22 01:29:36;;;;;;;2.83;0.80;;;;;;;5.41;100.00;96050.16;5002050;28;20038;-64
2023/12/22 01:32:04;;;;;;;2.72;0.90;;;;;;;5.34;100.00;96050.38;5003955;28;20052;-65
2023/12/22 01:34:31;;;;;;;5.88;0.80;;;;;;;5.38;100.00;96064.91;5001458;28;20124;-63
2023/12/22 01:36:57;;;;;;;3.50;0.90;;;;;;;5.41;100.00;96063.59;5003864;28;20560;-65
2023/12/22 01:39:24;;;;;;;1.48;0.70;;;;;;;5.40;100.00;96070.03;4980364;28;20049;-64
2023/12/22 01:41:50;;;;;;;1.05;0.50;;;;;;;5.37;100.00;96076.72;4994907;28;20041;-62
2023/12/22 01:44:17;;;;;;;1.35;0.60;;;;;;;5.29;100.00;96051.13;5007208;28;20050;-62
2023/12/22 01:46:43;;;;;;;6.65;0.63;;;;;;;5.25;100.00;96082.22;5007022;28;20041;-65
2023/12/22 01:49:11;;;;;;;4.63;0.50;;;;;;;5.18;100.00;96084.25;5007702;28;20062;-64
2023/12/22 01:51:39;;;;;;;0.77;0.57;;;;;;;5.08;100.00;96093.00;5006740;28;20545;-63
2023/12/22 01:54:06;;;;;;;1.85;0.40;;;;;;;5.15;100.00;96098.16;5003401;28;20252;-61
2023/12/22 01:56:33;;;;;;;1.25;0.30;;;;;;;5.25;100.00;96076.84;5000171;28;20100;-62
2023/12/22 01:59:01;;;;;;;2.42;0.63;;;;;;;5.18;100.00;96095.81;5005442;28;20044;-63
2023/12/22 02:01:28;;;;;;;1.88;0.47;;;;;;;5.27;100.00;96103.44;5005605;28;20045;-64
2023/12/22 02:03:56;;;;;;;3.17;0.57;;;;;;;5.29;100.00;96096.75;4998551;28;20054;-64
2023/12/22 02:06:23;;;;;;;2.03;0.50;;;;;;;5.41;100.00;96083.22;4998813;28;20115;-61
2023/12/22 02:08:50;;;;;;;2.13;0.80;;;;;;;5.46;100.00;96103.94;5002464;28;20042;-63
2023/12/22 02:11:17;;;;;;;0.90;0.47;;;;;;;5.45;100.00;96083.50;5005990;28;20061;-63
2023/12/22 02:13:44;;;;;;;3.10;0.47;;;;;;;5.43;100.00;96086.47;4991897;28;20044;-63
2023/12/22 02:16:28;;;;;;;3.90;0.95;;;;;;;5.41;100.00;96072.47;4998370;28;20046;-63
2023/12/22 02:18:57;;;;;;;1.83;0.52;;;;;;;5.42;100.00;96081.34;5001390;28;20060;-64
2023/12/22 02:21:24;;;;;;;2.63;0.60;;;;;;;5.43;100.00;96083.78;5004193;28;20091;-66
2023/12/22 02:23:50;;;;;;;1.77;0.50;;;;;;;5.51;100.00;96090.56;5006658;28;20523;-64
2023/12/22 02:26:33;;;;;;;2.88;0.57;;;;;;;5.51;100.00;96093.25;5004552;28;20124;-64
2023/12/22 02:29:01;;;;;;;3.30;0.88;;;;;;;5.52;100.00;96100.25;5002164;28;20044;-62
2023/12/22 02:31:37;;;;;;;5.75;0.90;;;;;;;5.55;100.00;96096.25;5007850;28;20034;-63
2023/12/22 02:34:13;;;;;;;4.35;0.57;;;;;;;5.56;100.00;96079.88;4995818;28;20125;-62
2023/12/22 02:36:41;;;;;;;2.35;0.73;;;;;;;5.59;100.00;96084.75;4996907;28;20778;-61
2023/12/22 02:39:09;;;;;;;3.75;1.33;;;;;;;5.60;100.00;96091.75;4999451;28;20457;-63
2023/12/22 02:41:36;;;;;;;1.73;0.57;;;;;;;5.57;100.00;96089.56;5003105;28;20053;-62
2023/12/22 02:44:03;;;;;;;3.67;1.00;;;;;;;5.63;100.00;96070.84;4997722;28;20045;-60
2023/12/22 02:46:29;;;;;;;7.38;1.10;;;;;;;5.62;100.00;96075.38;4970878;28;20141;-62
2023/12/22 02:48:56;;;;;;;3.30;1.20;;;;;;;5.67;100.00;96067.38;4993801;28;20533;-63
2023/12/22 02:51:23;;;;;;;3.33;0.98;;;;;;;5.64;100.00;96061.72;5005760;28;20525;-63
2023/12/22 02:53:49;;;;;;;6.53;1.08;;;;;;;5.70;100.00;96058.00;4997259;28;20057;-62
2023/12/22 02:56:15;;;;;;;5.68;0.93;;;;;;;5.70;100.00;96071.44;5006634;28;20050;-63
2023/12/22 02:58:42;;;;;;;3.72;0.98;;;;;;;5.77;100.00;96071.22;5000346;28;20602;-63
2023/12/22 03:01:09;;;;;;;3.45;1.20;;;;;;;5.72;100.00;96075.47;4999898;28;20121;-63
2023/12/22 03:03:35;;;;;;;3.97;0.98;;;;;;;5.83;100.00;96065.66;4994280;28;20053;-62
2023/12/22 03:06:02;;;;;;;4.00;1.30;;;;;;;5.82;100.00;96068.63;5000799;28;20049;-62
2023/12/22 03:08:29;;;;;;;3.28;0.77;;;;;;;5.97;100.00;96068.75;5000998;28;20057;-62
2023/12/22 03:10:55;;;;;;;2.83;0.60;;;;;;;5.97;100.00;96084.06;4994797;28;20557;-64
2023/12/22 03:13:22;;;;;;;4.43;1.08;;;;;;;6.01;100.00;96073.63;4986513;28;20042;-63
2023/12/22 03:15:49;;;;;;;3.38;0.77;;;;;;;5.98;100.00;96085.69;4986474;28;20053;-62
2023/12/22 03:18:15;;;;;;;6.53;0.90;;;;;;;5.94;100.00;96090.75;4993277;28;20128;-64
2023/12/22 03:20:42;;;;;;;2.53;0.50;;;;;;;5.96;100.00;96106.63;5003907;28;20038;-62
2023/12/22 03:23:08;;;;;;;3.25;0.75;;;;;;;5.97;100.00;96086.75;4996205;28;20221;-62
2023/12/22 03:25:35;;;;;;;5.13;0.65;;;;;;;5.91;100.00;96096.63;5004318;28;20046;-59
2023/12/22 03:28:02;;;;;;;3.80;0.75;;;;;;;5.98;100.00;96091.06;5005751;28;20046;-64
2023/12/22 03:30:28;;;;;;;3.00;0.98;;;;;;;5.91;100.00;96110.06;4999665;28;20045;-61
2023/12/22 03:32:55;;;;;;;5.55;1.20;;;;;;;5.97;100.00;96092.13;4997766;28;20100;-63
2023/12/22 03:35:22;;;;;;;2.65;0.77;;;;;;;5.97;100.00;96092.13;4996452;28;20037;-59
2023/12/22 03:37:48;;;;;;;5.10;0.93;;;;;;;5.85;100.00;96106.53;4997831;28;20038;-59
2023/12/22 03:40:15;;;;;;;6.43;1.15;;;;;;;5.86;100.00;96118.06;4989322;28;20046;-64
2023/12/22 03:42:42;;;;;;;4.85;0.88;;;;;;;5.78;100.00;96103.22;4995760;28;20046;-62
2023/12/22 03:45:08;;;;;;;4.90;0.75;;;;;;;5.78;100.00;96116.66;5004648;28;20049;-62
2023/12/22 03:47:35;;;;;;;5.90;1.27;;;;;;;5.60;100.00;96109.72;4997568;28;20069;-63
2023/12/22 03:50:01;;;;;;;3.53;0.85;;;;;;;5.51;100.00;96122.78;4977358;28;20053;-58
2023/12/22 03:52:28;;;;;;;7.18;1.17;;;;;;;5.43;100.00;96117.84;4996787;28;20129;-63
2023/12/22 03:54:54;;;;;;;4.50;1.10;;;;;;;5.30;100.00;96101.06;5004279;28;20099;-62
2023/12/22 03:57:21;;;;;;;5.07;1.05;;;;;;;5.27;100.00;96096.19;5003577;28;20096;-64
2023/12/22 03:59:47;;;;;;;2.70;0.93;;;;;;;5.23;100.00;96089.69;4996510;28;20041;-64
2023/12/22 04:02:14;;;;;;;8.95;1.35;;;;;;;5.17;100.00;96085.34;5001665;28;20048;-58
2023/12/22 04:04:41;;;;;;;8.18;1.15;;;;;;;5.06;100.00;96106.66;4992044;28;20073;-58
2023/12/22 04:07:07;;;;;;;8.15;1.38;;;;;;;4.94;100.00;96106.75;5001479;28;20563;-61
2023/12/22 04:09:37;;;;;;;8.25;1.90;;;;;;;4.89;100.00;96103.19;4989253;28;20050;-63
2023/12/22 04:12:04;;;;;;;8.48;1.38;;;;;;;4.75;100.00;96133.03;5004782;28;20065;-62
2023/12/22 04:14:30;;;;;;;3.10;0.95;;;;;;;4.74;100.00;96120.69;4994355;28;20050;-61
2023/12/22 04:16:57;;;;;;;7.45;1.00;;;;;;;4.70;100.00;96127.59;5000897;28;20050;-59
2023/12/22 04:19:24;;;;;;;5.63;1.45;;;;;;;4.76;100.00;96117.78;4999117;28;20122;-62
2023/12/22 04:21:50;;;;;;;7.43;1.48;;;;;;;4.74;100.00;96130.59;5004755;28;20046;-57
2023/12/22 04:24:17;;;;;;;4.97;1.15;;;;;;;4.74;100.00;96127.91;5004238;28;20050;-60
2023/12/22 04:26:43;;;;;;;7.32;1.40;;;;;;;4.75;100.00;96110.78;5004122;28;20042;-58
2023/12/22 04:29:10;;;;;;;5.22;1.05;;;;;;;4.74;100.00;96107.28;4995722;28;20076;-59
2023/12/22 04:31:37;;;;;;;4.57;0.73;;;;;;;4.78;100.00;96115.66;5004276;28;20046;-61
2023/12/22 04:34:04;;;;;;;5.95;1.05;;;;;;;4.87;100.00;96129.47;5003697;28;20038;-62
2023/12/22 04:36:30;;;;;;;6.32;1.10;;;;;;;4.88;100.00;96142.63;4999432;28;20051;-64
2023/12/22 04:38:57;;;;;;;5.88;1.45;;;;;;;4.91;100.00;96141.31;5004890;28;20045;-62
2023/12/22 04:41:24;;;;;;;6.07;1.15;;;;;;;4.89;100.00;96132.69;4995450;28;20049;-61
2023/12/22 04:43:50;;;;;;;3.45;0.98;;;;;;;4.92;100.00;96134.91;5003568;28;20056;-64
2023/12/22 04:46:17;;;;;;;8.57;1.10;;;;;;;4.92;100.00;96132.22;4997480;28;20057;-62
2023/12/22 04:48:43;;;;;;;3.58;0.90;;;;;;;4.97;100.00;96152.94;5002507;28;20465;-61
2023/12/22 04:51:10;;;;;;;5.90;1.05;;;;;;;4.95;100.00;96137.09;4996503;28;20580;-58
2023/12/22 04:53:36;;;;;;;6.75;1.17;;;;;;;4.89;100.00;96138.06;4982527;28;20057;-65
2023/12/22 04:56:03;;;;;;;5.28;1.40;;;;;;;4.89;100.00;96132.69;4990980;28;20064;-58
2023/12/22 04:58:30;;;;;;;5.43;1.02;;;;;;;4.92;100.00;96119.63;4989517;28;20552;-58
2023/12/22 05:00:57;;;;;;;4.57;0.85;;;;;;;5.00;100.00;96147.91;4996612;28;20080;-59
2023/12/22 05:03:23;;;;;;;10.57;2.00;;;;;;;5.07;100.00;96139.66;4996044;28;20042;-58
2023/12/22 05:05:50;;;;;;;3.90;0.95;;;;;;;5.10;100.00;96133.81;4994295;28;20097;-61
2023/12/22 05:08:16;;;;;;;6.45;1.65;;;;;;;5.05;100.00;96152.53;4999159;28;20600;-64
2023/12/22 05:10:43;;;;;;;6.72;1.15;;;;;;;5.16;100.00;96150.81;4992040;28;20030;-62
2023/12/22 05:13:09;;;;;;;9.07;1.67;;;;;;;5.24;100.00;96171.84;5003259;28;20053;-65
2023/12/22 05:15:36;;;;;;;5.43;1.20;;;;;;;5.29;100.00;96169.22;5002265;28;20125;-63
2023/12/22 05:18:02;;;;;;;7.80;1.52;;;;;;;5.39;100.00;96173.94;4998789;28;20660;-63
2023/12/22 05:20:29;;;;;;;6.82;1.75;;;;;;;5.41;100.00;96157.53;4999980;28;20101;-65
2023/12/22 05:22:56;;;;;;;7.43;1.48;;;;;;;5.45;100.00;96161.38;5004565;28;20065;-61
2023/12/22 05:25:23;;;;;;;6.78;1.33;;;;;;;5.39;100.00;96147.09;4995281;28;20049;-65
2023/12/22 05:27:50;;;;;;;5.90;1.42;;;;;;;5.44;100.00;96149.81;4998403;28;20097;-64
2023/12/22 05:30:17;;;;;;;11.73;2.53;;;;;;;5.43;100.00;96158.94;4999978;28;20045;-65
2023/12/22 05:32:44;;;;;;;6.07;1.27;;;;;;;5.46;100.00;96163.00;5000183;28;20173;-63
2023/12/22 05:35:11;;;;;;;8.77;2.10;;;;;;;5.45;100.00;96154.13;4984892;28;20050;-65
2023/12/22 05:37:38;;;;;;;10.38;1.60;;;;;;;5.47;100.00;96165.44;4999783;28;20603;-65
2023/12/22 05:40:06;;;;;;;10.18;1.70;;;;;;;5.47;100.00;96159.25;5001763;28;20394;-62
2023/12/22 05:42:33;;;;;;;9.80;1.42;;;;;;;5.57;100.00;96163.94;4994658;28;20038;-65
2023/12/22 05:44:59;;;;;;;7.40;1.70;;;;;;;5.65;100.00;96165.38;5003722;28;20104;-64
2023/12/22 05:47:26;;;;;;;8.25;1.55;;;;;;;5.69;100.00;96169.19;4997492;28;20046;-65
2023/12/22 05:49:53;;;;;;;6.13;1.30;;;;;;;5.75;100.00;96183.50;4989924;28;20062;-65
2023/12/22 05:52:20;;;;;;;6.45;1.75;;;;;;;5.77;100.00;96182.19;5003807;28;20358;-64
2023/12/22 05:54:46;;;;;;;2.40;0.77;;;;;;;5.84;100.00;96168.56;5002505;28;20046;-66
2023/12/22 05:57:13;;;;;;;5.22;1.20;;;;;;;5.84;100.00;96182.81;4980049;28;20061;-62
2023/12/22 05:59:40;;;;;;;8.45;1.60;;;;;;;5.90;100.00;96183.66;5000462;28;20042;-59
2023/12/22 06:02:06;;;;;;;7.63;1.27;;;;;;;5.89;100.00;96192.78;4998742;28;20050;-60
2023/12/22 06:04:33;;;;;;;7.93;2.45;;;;;;;5.88;100.00;96180.41;5000063;28;20038;-63
2023/12/22 06:07:00;;;;;;;4.55;1.63;;;;;;;5.86;100.00;96204.03;5003285;28;20050;-62
2023/12/22 06:09:26;;;;;;;10.93;1.92;;;;;;;5.92;100.00;96186.91;5001893;28;20100;-64
2023/12/22 06:11:53;;;;;;;9.60;1.98;;;;;;;5.92;100.00;96191.47;5003763;28;20038;-62
2023/12/22 06:14:19;;;;;;;7.03;1.80;;;;;;;5.92;100.00;96226.41;5002761;28;20541;-66
2023/12/22 06:16:48;;;;;;;12.82;1.85;;;;;;;5.88;100.00;96190.34;5001818;28;20045;-66
2023/12/22 06:19:16;;;;;;;8.57;1.10;;;;;;;5.81;100.00;96196.72;5001867;28;20052;-63
2023/12/22 06:21:43;;;;;;;6.05;1.05;;;;;;;5.97;100.00;96215.72;5003017;28;20056;-63
2023/12/22 06:24:09;;;;;;;5.95;1.00;;;;;;;5.96;100.00;96214.91;4995690;28;20120;-62
2023/12/22 06:26:36;;;;;;;5.35;1.23;;;;;;;5.98;100.00;96220.03;5002774;28;20046;-65
2023/12/22 06:29:03;;;;;;;5.00;1.25;;;;;;;5.98;100.00;96236.94;4992483;28;20492;-65
2023/12/22 06:31:30;;;;;;;6.30;1.13;;;;;;;6.01;100.00;96227.56;4998342;28;20073;-66
2023/12/22 06:34:01;;;;;;;8.10;1.05;;;;;;;6.01;100.00;96238.31;5006966;28;20118;-65
2023/12/22 06:36:32;;;;;;;7.15;1.25;;;;;;;5.97;100.00;96235.34;5005345;28;20421;-65
2023/12/22 06:38:58;;;;;;;5.10;1.17;;;;;;;5.97;100.00;96234.53;4997080;28;20042;-64
2023/12/22 06:41:30;;;;;;;7.25;1.70;;;;;;;6.02;100.00;96220.34;5006277;28;20034;-64
2023/12/22 06:43:59;;;;;;;6.55;1.30;;;;;;;6.01;100.00;96224.09;5001600;28;20465;-64
2023/12/22 06:46:27;;;;;;;4.45;1.30;;;;;;;5.92;100.00;96224.53;4992589;28;20046;-64
2023/12/22 06:48:55;;;;;;;7.43;1.50;;;;;;;5.87;100.00;96235.22;4992796;28;20042;-66
2023/12/22 06:51:30;;;;;;;2.88;1.00;;;;;;;5.98;100.00;96252.28;4999422;28;20545;-64
2023/12/22 06:53:59;;;;;;;5.07;1.55;;;;;;;5.85;100.00;96262.34;4995657;28;20057;-60
2023/12/22 06:56:30;;;;;;;6.90;1.55;;;;;;;5.83;100.00;96253.69;5002362;28;20045;-60
2023/12/22 06:58:57;;;;;;;7.22;1.40;;;;;;;5.82;100.00;96262.03;5003320;28;20042;-63
2023/12/22 07:01:29;;;;;;;8.77;2.17;;;;;;;5.79;100.00;96257.16;4995280;28;20030;-60
2023/12/22 07:03:57;;;;;;;8.85;1.60;;;;;;;5.84;100.00;96286.75;5002724;28;20061;-59
2023/12/22 07:06:27;;;;;;;7.75;1.58;;;;;;;5.76;100.00;96279.94;4998943;28;20048;-64
2023/12/22 07:09:12;;;;;;;6.38;1.70;;;;;;;5.79;100.00;96306.28;4998998;28;20050;-63
2023/12/22 07:11:55;;;;;;;12.98;1.65;;;;;;;5.75;100.00;96261.38;4999571;28;20042;-60
2023/12/22 07:14:23;;;;;;;5.82;1.10;;;;;;;5.70;100.00;96284.44;5004706;28;20123;-64
2023/12/22 07:16:50;;;;;;;9.73;1.35;;;;;;;5.67;100.00;96297.53;5003056;28;20046;-65
2023/12/22 07:19:16;;;;;;;9.43;1.63;;;;;;;5.73;100.00;96302.75;5002074;28;20599;-64
2023/12/22 07:21:43;;;;;;;8.65;1.60;;;;;;;5.73;100.00;96291.19;4989536;28;20429;-60
2023/12/22 07:24:12;;;;;;;5.70;1.38;;;;;;;5.73;100.00;96305.44;4998815;28;20038;-65
2023/12/22 07:26:41;;;;;;;7.07;1.30;;;;;;;5.83;100.00;96317.38;5004691;28;20048;-65
2023/12/22 07:29:08;;;;;;;7.50;1.48;;;;;;;5.83;100.00;96322.75;5005658;28;20054;-65
2023/12/22 07:31:35;;;;;;;5.28;1.20;;;;;;;5.68;100.00;96321.44;5004940;28;20046;-65
2023/12/22 07:34:01;;;;;;;6.45;1.17;;;;;;;5.65;100.00;96321.13;5004771;28;20484;-64
2023/12/22 07:36:28;;;;;;;7.40;1.70;;;;;;;5.72;100.00;96319.91;4996789;28;20125;-66
2023/12/22 07:38:57;;;;;;;9.85;1.70;;;;;;;5.80;100.00;96316.00;5001281;28;20818;-62
2023/12/22 07:41:24;;;;;;;11.23;1.45;;;;;;;5.75;100.00;96305.16;5002302;28;20041;-60
2023/12/22 07:43:50;;;;;;;9.27;1.92;;;;;;;5.81;100.00;96303.34;5004691;28;20533;-65
2023/12/22 07:46:22;;;;;;;5.18;0.90;;;;;;;5.78;100.00;96320.78;5005252;28;20049;-66
2023/12/22 07:48:50;;;;;;;5.97;1.00;;;;;;;5.71;100.00;96296.78;4994689;28;20058;-65
2023/12/22 07:51:18;;;;;;;10.68;1.42;;;;;;;5.50;100.00;96309.13;4999998;28;20034;-66
2023/12/22 07:53:44;;;;;;;5.45;1.33;;;;;;;5.40;100.00;96311.63;5003503;28;20050;-67
2023/12/22 07:56:11;;;;;;;6.95;1.20;;;;;;;5.37;100.00;96314.78;5005082;28;20125;-66
2023/12/22 07:58:38;;;;;;;7.05;1.58;;;;;;;5.36;100.00;96300.59;5002269;28;20049;-66
2023/12/22 08:01:05;;;;;;;10.45;1.35;;;;;;;5.42;100.00;96313.00;5004639;28;20077;-66
2023/12/22 08:03:32;;;;;;;8.45;1.42;;;;;;;5.45;100.00;96319.75;5004483;28;20134;-66
2023/12/22 08:05:59;;;;;;;5.20;1.13;;;;;;;5.40;100.00;96350.03;5005127;28;20049;-66
2023/12/22 08:08:26;;;;;;;9.40;1.60;;;;;;;5.26;100.00;96327.25;5001867;28;20045;-65
2023/12/22 08:10:52;;;;;;;7.97;1.63;;;;;;;5.25;100.00;96333.69;5003568;28;20048;-67
2023/12/22 08:13:19;;;;;;;10.52;1.48;;;;;;;5.12;100.00;96327.56;4999904;28;20034;-65
2023/12/22 08:15:46;;;;;;;8.98;1.88;;;;;;;5.14;100.00;96340.75;4990839;28;20038;-63
2023/12/22 08:18:12;;;;;;;11.57;2.03;;;;;;;5.03;100.00;96332.53;5004822;28;20038;-64
2023/12/22 08:20:39;;;;;;;12.32;2.33;;;;;;;5.14;100.00;96343.44;5003429;28;20072;-60
2023/12/22 08:23:12;;;;;;;7.55;1.73;;;;;;;5.06;100.00;96364.22;4995685;28;20659;-66
2023/12/22 08:25:41;;;;;;;10.13;1.67;;;;;;;5.26;100.00;96359.44;5001531;28;20670;-67
2023/12/22 08:28:08;;;;;;;13.07;2.03;;;;;;;5.27;100.00;96332.38;4996357;28;20545;-65
2023/12/22 08:30:34;;;;;;;6.90;1.30;;;;;;;5.28;100.00;96333.19;4997257;28;20046;-67
2023/12/22 08:33:01;;;;;;;13.55;1.92;;;;;;;5.35;100.00;96312.38;5000499;28;20042;-65
2023/12/22 08:35:28;;;;;;;10.10;2.60;;;;;;;5.38;100.00;96319.94;4998914;28;20046;-65
2023/12/22 08:37:54;;;;;;;10.98;1.90;;;;;;;5.45;100.00;96319.75;4996291;28;20120;-65
2023/12/22 08:40:25;;;;;;;8.65;1.70;;;;;;;5.56;100.00;96323.41;5002642;28;20476;-66
2023/12/22 08:42:54;;;;;;;7.32;2.15;;;;;;;5.62;100.00;96313.56;4987997;28;20045;-66
2023/12/22 08:45:21;;;;;;;11.75;2.20;;;;;;;5.66;100.00;96328.13;5001431;28;20050;-65
2023/12/22 08:47:48;;;;;;;11.43;1.65;;;;;;;5.75;100.00;96347.34;5000568;28;20152;-65
2023/12/22 08:50:15;;;;;;;12.38;2.55;;;;;;;5.82;100.00;96313.84;4988684;28;20054;-64
2023/12/22 08:52:42;;;;;;;10.38;1.80;;;;;;;5.81;100.00;96323.00;4988330;28;20098;-65
2023/12/22 08:55:08;;;;;;;9.65;1.90;;;;;;;5.84;100.00;96316.31;5001959;28;20053;-64
2023/12/22 08:57:35;;;;;;;13.43;2.88;;;;;;;5.89;100.00;96296.78;4994199;28;20477;-60
2023/12/22 09:00:03;;;;;;;9.30;1.85;;;;;;;5.97;100.00;96324.00;4987548;28;20058;-60
2023/12/22 09:02:30;;;;;;;8.93;1.63;;;;;;;6.03;100.00;96332.13;4998703;28;20069;-62
2023/12/22 09:04:56;;;;;;;11.65;2.75;;;;;;;6.07;100.00;96350.25;5002822;28;20049;-60
2023/12/22 09:07:24;;;;;;;12.85;2.72;;;;;;;6.06;100.00;96345.09;5001838;28;20120;-60
2023/12/22 09:09:51;;;;;;;13.50;2.40;;;;;;;6.12;100.00;96338.75;4996415;28;20113;-60
2023/12/22 09:12:17;;;;;;;10.18;2.15;;;;;;;6.10;100.00;96344.38;4989601;28;20117;-62
2023/12/22 09:14:44;;;;;;;10.65;2.65;;;;;;;6.08;100.00;96349.16;4994866;28;20042;-61
2023/12/22 09:17:11;;;;;;;13.43;2.25;;;;;;;6.07;100.00;96350.25;4992444;28;20074;-61
2023/12/22 09:19:42;;;;;;;12.60;2.10;;;;;;;6.10;100.00;96330.94;4999227;28;20054;-62
2023/12/22 09:22:09;;;;;;;10.25;1.80;;;;;;;6.19;100.00;96347.44;4997454;28;20042;-62
2023/12/22 09:24:36;;;;;;;10.02;1.65;;;;;;;6.37;100.00;96343.63;4998368;28;20069;-60
2023/12/22 09:27:04;;;;;;;10.80;1.63;;;;;;;6.44;100.00;96339.94;5002676;28;20042;-60
2023/12/22 09:29:33;;;;;;;10.30;2.00;;;;;;;6.56;100.00;96337.91;4999995;28;20489;-56
2023/12/22 09:32:00;;;;;;;12.18;2.55;;;;;;;6.56;100.00;96346.00;4997773;28;20050;-56
2023/12/22 09:34:27;;;;;;;5.72;1.50;;;;;;;6.60;100.00;96344.44;5002071;28;20042;-63
2023/12/22 09:36:54;;;;;;;6.07;1.63;;;;;;;6.59;100.00;96353.56;4996113;28;20050;-63
2023/12/22 09:39:21;;;;;;;7.65;1.77;;;;;;;6.64;100.00;96348.22;4995900;28;20051;-63
2023/12/22 09:41:49;;;;;;;9.60;2.35;;;;;;;6.65;100.00;96357.13;4998018;28;20034;-63
2023/12/22 09:44:23;;;;;;;10.45;2.78;;;;;;;6.59;100.00;96356.25;4999982;28;20478;-63
2023/12/22 09:46:50;;;;;;;8.05;2.08;;;;;;;6.65;100.00;96359.81;4998043;28;20052;-64
2023/12/22 09:49:18;;;;;;;7.25;1.45;;;;;;;6.69;100.00;96371.69;5003403;28;20076;-63
2023/12/22 09:51:46;;;;;;;13.73;2.28;;;;;;;6.62;100.00;96365.69;5004763;28;20046;-63
2023/12/22 09:54:13;;;;;;;14.43;2.95;;;;;;;6.68;100.00;96363.88;5005154;28;20053;-63
2023/12/22 09:56:42;;;;;;;9.40;2.00;;;;;;;6.74;100.00;96376.31;5005627;28;20042;-64
2023/12/22 09:59:12;;;;;;;6.50;1.83;;;;;;;6.79;100.00;96362.94;5002620;28;20061;-62
2023/12/22 10:01:45;;;;;;;11.50;2.58;;;;;;;6.66;100.00;96371.41;5002160;28;20054;-64
2023/12/22 10:04:15;;;;;;;8.90;1.92;;;;;;;6.72;100.00;96349.69;5006975;28;20415;-62
2023/12/22 10:06:45;;;;;;;8.63;1.77;;;;;;;6.69;100.00;96357.44;4998716;28;20054;-62
2023/12/22 10:09:14;;;;;;;5.32;1.65;;;;;;;6.72;100.00;96359.63;5001374;28;20042;-62
2023/12/22 10:11:43;;;;;;;9.02;1.85;;;;;;;6.68;100.00;96351.25;5003774;28;20104;-63
2023/12/22 10:14:10;;;;;;;8.98;1.92;;;;;;;6.74;100.00;96339.47;4996431;28;20053;-64
2023/12/22 10:16:37;;;;;;;7.03;1.42;;;;;;;6.73;100.00;96348.63;4994016;28;20046;-65
2023/12/22 10:19:04;;;;;;;7.00;2.03;;;;;;;6.73;100.00;96366.63;5004479;28;20050;-63
2023/12/22 10:21:30;;;;;;;7.45;1.58;;;;;;;6.75;100.00;96340.28;5004020;28;20521;-62
2023/12/22 10:24:00;;;;;;;8.98;1.90;;;;;;;6.83;100.00;96339.03;4999962;28;20050;-63
2023/12/22 10:26:28;;;;;;;17.13;2.70;;;;;;;6.85;100.00;96334.19;4996196;28;20078;-62
2023/12/22 10:28:54;;;;;;;7.78;1.67;;;;;;;6.81;100.00;96343.84;5000841;28;20077;-63
2023/12/22 10:31:21;;;;;;;6.25;1.30;;;;;;;6.86;100.00;96333.13;5006896;28;20049;-62
2023/12/22 10:33:48;;;;;;;10.52;2.13;;;;;;;6.85;100.00;96343.09;5006435;28;20041;-60
2023/12/22 10:36:15;;;;;;;9.57;1.63;;;;;;;6.86;100.00;96365.44;5004751;28;20050;-64
2023/12/22 10:38:43;;;;;;;12.07;1.95;;;;;;;6.87;100.00;96324.00;5003652;28;20041;-64
2023/12/22 10:41:09;;;;;;;10.32;1.80;;;;;;;6.85;100.00;96305.41;4998306;28;20128;-63
2023/12/22 10:43:38;;;;;;;8.15;1.48;;;;;;;6.82;100.00;96321.25;5007520;28;20042;-63
2023/12/22 10:46:07;;;;;;;5.10;1.13;;;;;;;6.72;100.00;96321.97;5005974;28;20057;-63
2023/12/22 10:48:34;;;;;;;7.43;1.48;;;;;;;6.69;100.00;96309.00;4995556;28;20046;-63
2023/12/22 10:51:01;;;;;;;7.07;1.60;;;;;;;6.63;100.00;96308.97;5004975;28;20104;-63
2023/12/22 10:53:28;;;;;;;6.18;1.42;;;;;;;6.59;100.00;96312.41;5001236;28;20042;-63
2023/12/22 10:55:56;;;;;;;11.38;1.60;;;;;;;6.48;100.00;96306.91;5004241;28;20109;-63
2023/12/22 10:58:23;;;;;;;5.25;1.20;;;;;;;6.43;100.00;96311.41;4994998;28;20464;-61
2023/12/22 11:00:51;;;;;;;6.72;1.23;;;;;;;6.39;100.00;96303.06;5001541;28;20651;-63
2023/12/22 11:03:23;;;;;;;5.32;1.35;;;;;;;6.34;100.00;96295.72;5006756;28;20504;-62
2023/12/22 11:05:52;;;;;;;8.10;1.52;;;;;;;6.26;100.00;96271.19;5006378;28;20104;-62
2023/12/22 11:08:20;;;;;;;4.50;1.10;;;;;;;6.28;100.00;96298.59;5004931;28;20116;-64
2023/12/22 11:10:56;;;;;;;4.40;1.00;;;;;;;6.25;100.00;96305.31;4998397;28;20125;-63
2023/12/22 11:13:23;;;;;;;4.63;1.35;;;;;;;6.06;100.00;96311.00;4997025;28;20042;-63
2023/12/22 11:15:52;;;;;;;6.57;1.40;;;;;;;6.01;100.00;96302.81;4999310;28;20049;-62
2023/12/22 11:18:19;;;;;;;3.35;0.90;;;;;;;5.92;100.00;96307.81;5005022;28;20073;-62
2023/12/22 11:20:48;;;;;;;5.20;1.17;;;;;;;5.93;100.00;96295.22;5006452;28;20037;-62
2023/12/22 11:23:16;;;;;;;5.85;1.20;;;;;;;5.86;100.00;96296.19;5004009;28;20046;-62
2023/12/22 11:25:44;;;;;;;4.40;0.85;;;;;;;5.84;100.00;96289.44;5018411;28;20034;-63
2023/12/22 11:28:12;;;;;;;2.40;1.08;;;;;;;5.82;100.00;96281.63;4999969;28;20041;-63
2023/12/22 11:30:39;;;;;;;3.97;1.10;;;;;;;5.73;100.00;96281.25;4998102;28;20073;-63
2023/12/22 11:33:06;;;;;;;3.42;0.90;;;;;;;5.69;100.00;96263.19;5000062;28;20081;-65